Mckinley Sea — WDE5024 — position and weather

sailwx.info

Track history (hours):
 
Tides and Currents Weather Stations Pressure Air Temp Water Temp Dewpoint Dewpoint Depression Visibility Wind Speed Wind Dir Waves Ship Positions

Mckinley Sea

Owner: Kirby Offshore Marine, LLC, Staten Island, NY. More information available from US FCC via Universal Licensing System and Coast Guard Vessel Documentation Center.

Last reported at 2015-Mar-30 13:33 UTC. Time now 2015-Mar-30 14:18 UTC.
Position N 40°42' W 073°58'.

Length 46 m; draft 7 m.

Type: Towing. MMSI: 367360980.

Date/timePositionNaut miles runAvg speedWind from/ knotsBaromVisibWave heightAir tempDewpointWater temp
2015-Mar-30 13:33N 40°42' W 073°58'0 0.0
2015-Mar-30 12:33N 40°42' W 073°58'0 0.0
2015-Mar-30 11:33N 40°42' W 073°58'5 4.8
2015-Mar-30 10:33N 40°39' W 074°03'5 4.9
2015-Mar-30 09:32N 40°39' W 074°10'0 0.0
2015-Mar-30 08:28N 40°39' W 074°10'0 0.0
2015-Mar-30 07:33N 40°39' W 074°10'1 0.5
2015-Mar-30 06:33N 40°39' W 074°09'7 6.8
2015-Mar-30 05:32N 40°35' W 074°02'8 8.4
2015-Mar-30 04:33N 40°29' W 073°54'9 8.7
2015-Mar-30 03:33N 40°31' W 073°43'11 8.7
2015-Mar-30 02:16N 40°32' W 073°29'7 8.7
2015-Mar-30 01:30N 40°34' W 073°20'9 8.7
2015-Mar-30 00:28N 40°36' W 073°08'8 9.0
2015-Mar-29 23:33N 40°39' W 072°58'22 9.3
2015-Mar-29 21:11N 40°46' W 072°31'6 9.7
2015-Mar-29 20:33N 40°49' W 072°23'10 9.6
2015-Mar-29 19:33N 40°53' W 072°12'10 9.8
2015-Mar-29 18:33N 40°57' W 072°00'10 9.9
2015-Mar-29 17:33N 41°01' W 071°48'10 9.9
2015-Mar-29 16:33N 41°05' W 071°36'10 9.9
2015-Mar-29 15:33N 41°09' W 071°24'10 9.6
2015-Mar-29 14:33N 41°16' W 071°15'13 9.5
2015-Mar-29 13:09N 41°25' W 071°02'79 8.2
2015-Mar-29 03:33N 42°41' W 070°32'9 9.4
2015-Mar-29 02:33N 42°50' W 070°36'0 0.0
2015-Mar-27 23:33N 42°50' W 070°36'95 5.3
2015-Mar-27 05:33N 41°18' W 071°09'8 7.5
2015-Mar-27 04:31N 41°12' W 071°16'7 7.2
2015-Mar-27 03:33N 41°08' W 071°23'7 7.2
2015-Mar-27 02:33N 41°06' W 071°33'7 7.2
2015-Mar-27 01:33N 41°03' W 071°41'7 6.9
2015-Mar-27 00:33N 41°01' W 071°50'7 7.1
2015-Mar-26 23:33N 40°58' W 071°58'7 7.3
2015-Mar-26 22:33N 40°55' W 072°07'7 7.2
2015-Mar-26 21:33N 40°52' W 072°16'7 7.3
2015-Mar-26 20:33N 40°49' W 072°25'7 7.4
2015-Mar-26 19:33N 40°46' W 072°34'8 7.5
2015-Mar-26 18:32N 40°43' W 072°43'8 7.3
2015-Mar-26 17:30N 40°40' W 072°52'7 7.3
2015-Mar-26 16:30N 40°38' W 073°01'20 7.0
2015-Mar-26 13:33N 40°33' W 073°28'7 7.0
2015-Mar-26 12:33N 40°31' W 073°37'7 7.1
2015-Mar-26 11:33N 40°30' W 073°46'14 6.9
2015-Mar-26 09:28N 40°36' W 074°03'6 6.6
2015-Mar-26 08:32N 40°39' W 074°10'6 2.0
2015-Mar-26 05:27N 40°34' W 074°14'0 0.0
2015-Mar-25 22:29N 40°34' W 074°14'0 0.0
2015-Mar-25 21:30N 40°34' W 074°14'0 0.0
2015-Mar-25 20:32N 40°34' W 074°14'4 0.2
2015-Mar-25 03:23N 40°30' W 074°15'5 5.5
2015-Mar-25 02:31N 40°30' W 074°09'0 0.0
2015-Mar-24 23:26N 40°30' W 074°09'0 0.1
2015-Mar-24 21:30N 40°30' W 074°09'0 0.0
2015-Mar-24 19:11N 40°30' W 074°09'0 0.0
2015-Mar-24 18:28N 40°30' W 074°09'5 4.9
2015-Mar-24 17:30N 40°30' W 074°03'8 8.3
2015-Mar-24 16:31N 40°38' W 074°03'3 2.9
2015-Mar-24 15:33N 40°39' W 074°07'0 0.0
2015-Mar-24 14:33N 40°39' W 074°07'0 0.0
2015-Mar-24 13:33N 40°39' W 074°07'0 0.0
2015-Mar-24 12:33N 40°39' W 074°07'0 0.0
2015-Mar-24 11:33N 40°39' W 074°07'0 0.3
2015-Mar-24 10:25N 40°39' W 074°07'0 0.0
2015-Mar-24 09:33N 40°39' W 074°07'0 0.0
2015-Mar-24 08:33N 40°39' W 074°07'0 0.0
2015-Mar-24 07:33N 40°39' W 074°07'0 0.0
2015-Mar-24 06:32N 40°39' W 074°07'0 0.0
2015-Mar-24 05:25N 40°39' W 074°07'0 0.0
2015-Mar-24 04:33N 40°39' W 074°07'0 0.0
2015-Mar-24 03:32N 40°39' W 074°07'0 0.0
2015-Mar-24 02:33N 40°39' W 074°07'0 0.0
2015-Mar-24 01:13N 40°39' W 074°07'0 0.0
2015-Mar-24 00:33N 40°39' W 074°07'1 1.3
2015-Mar-23 23:32N 40°38' W 074°09'0 0.5
2015-Mar-23 22:33N 40°38' W 074°09'2 1.8
2015-Mar-23 21:33N 40°39' W 074°07'0 0.0
2015-Mar-23 20:33N 40°39' W 074°07'0 0.0
2015-Mar-23 19:33N 40°39' W 074°07'0 0.0
2015-Mar-23 18:33N 40°39' W 074°07'0 0.0
2015-Mar-23 17:33N 40°39' W 074°07'0 0.0
2015-Mar-23 16:33N 40°39' W 074°07'0 0.0
2015-Mar-23 15:33N 40°39' W 074°07'0 0.0
2015-Mar-23 14:33N 40°39' W 074°07'0 0.0
2015-Mar-23 13:33N 40°39' W 074°07'0 0.0
2015-Mar-23 12:33N 40°39' W 074°07'0 0.0
2015-Mar-23 11:33N 40°39' W 074°07'0 0.0
2015-Mar-23 10:33N 40°39' W 074°07'0 0.0
2015-Mar-23 09:33N 40°39' W 074°07'0 0.0
2015-Mar-23 08:33N 40°39' W 074°07'0 0.0
2015-Mar-23 07:33N 40°39' W 074°07'0 0.0
2015-Mar-23 06:33N 40°39' W 074°07'0 0.0
2015-Mar-23 05:33N 40°39' W 074°07'0 0.0
2015-Mar-23 04:33N 40°39' W 074°07'0 0.0
2015-Mar-23 03:33N 40°39' W 074°07'0 0.0
2015-Mar-23 02:33N 40°39' W 074°07'0 0.0
2015-Mar-23 01:33N 40°39' W 074°07'0 0.0
2015-Mar-23 00:33N 40°39' W 074°07'0 0.0
2015-Mar-22 23:33N 40°39' W 074°07'0 0.0
2015-Mar-22 22:33N 40°39' W 074°07'0 0.0
2015-Mar-22 21:33N 40°39' W 074°07'0 0.0
2015-Mar-22 20:33N 40°39' W 074°07'0 0.0
2015-Mar-22 19:33N 40°39' W 074°07'0 0.0
2015-Mar-22 18:33N 40°39' W 074°07'0 0.0
2015-Mar-22 17:33N 40°39' W 074°07'0 0.0
2015-Mar-22 16:33N 40°39' W 074°07'0 0.0
2015-Mar-22 15:33N 40°39' W 074°07'0 0.0
2015-Mar-22 14:33N 40°39' W 074°07'0 0.0
2015-Mar-22 13:33N 40°39' W 074°07'0 0.0
2015-Mar-22 12:33N 40°39' W 074°07'0 0.0
2015-Mar-22 11:33N 40°39' W 074°07'0 0.0
2015-Mar-22 10:33N 40°39' W 074°07'0 0.0
2015-Mar-22 09:32N 40°39' W 074°07'0 0.0
2015-Mar-22 08:33N 40°39' W 074°07'0 0.0
2015-Mar-22 07:33N 40°39' W 074°07'0 0.0
2015-Mar-22 06:33N 40°39' W 074°07'0 0.0
2015-Mar-22 05:33N 40°39' W 074°07'0 0.0
2015-Mar-22 04:33N 40°39' W 074°07'0 0.0
2015-Mar-22 03:33N 40°39' W 074°07'0 0.0
2015-Mar-22 02:33N 40°39' W 074°07'0 0.0
2015-Mar-22 01:33N 40°39' W 074°07'0 0.0
2015-Mar-22 00:33N 40°39' W 074°07'0 0.0
2015-Mar-21 23:33N 40°39' W 074°07'0 0.0
2015-Mar-21 22:33N 40°39' W 074°07'0 0.0
2015-Mar-21 21:33N 40°39' W 074°07'0 0.0
2015-Mar-21 20:33N 40°39' W 074°07'0 0.0
2015-Mar-21 19:33N 40°39' W 074°07'0 0.0
2015-Mar-21 18:33N 40°39' W 074°07'0 0.0
2015-Mar-21 17:33N 40°39' W 074°07'0 0.0
2015-Mar-21 16:33N 40°39' W 074°07'0 0.0
2015-Mar-21 15:33N 40°39' W 074°07'0 0.0
2015-Mar-21 14:33N 40°39' W 074°07'0 0.0
2015-Mar-21 13:33N 40°39' W 074°07'0 0.0
2015-Mar-21 12:33N 40°39' W 074°07'0 0.0
2015-Mar-21 11:33N 40°39' W 074°07'0 0.0
2015-Mar-21 10:33N 40°39' W 074°07'0 0.0
2015-Mar-21 09:33N 40°39' W 074°07'0 0.0
2015-Mar-21 08:33N 40°39' W 074°07'0 0.0
2015-Mar-21 07:33N 40°39' W 074°07'0 0.0
2015-Mar-21 06:33N 40°39' W 074°07'0 0.0
2015-Mar-21 05:33N 40°39' W 074°07'0 0.0
2015-Mar-21 04:33N 40°39' W 074°07'0 0.0
2015-Mar-21 03:33N 40°39' W 074°07'0 0.0
2015-Mar-21 02:33N 40°39' W 074°07'0 0.0
2015-Mar-21 01:33N 40°39' W 074°07'0 0.0
2015-Mar-21 00:33N 40°39' W 074°07'0 0.0
2015-Mar-20 23:33N 40°39' W 074°07'0 0.0
2015-Mar-20 22:33N 40°39' W 074°07'0 0.0
2015-Mar-20 21:33N 40°39' W 074°07'0 0.0
2015-Mar-20 20:33N 40°39' W 074°07'0 0.0
2015-Mar-20 19:33N 40°39' W 074°07'2 2.2
2015-Mar-20 18:32N 40°39' W 074°10'1 0.6
2015-Mar-20 17:33N 40°38' W 074°09'2 1.5
2015-Mar-20 16:20N 40°39' W 074°07'0 0.4
2015-Mar-20 15:33N 40°39' W 074°07'0 0.0
2015-Mar-20 14:33N 40°39' W 074°07'  
Track history (hours):
 
Tides and Currents Weather Stations Pressure Air Temp Water Temp Dewpoint Dewpoint Depression Visibility Wind Speed Wind Dir Waves Ship Positions

Mckinley Sea

Owner: Kirby Offshore Marine, LLC, Staten Island, NY. More information available from US FCC via Universal Licensing System and Coast Guard Vessel Documentation Center.

Last reported at 2015-Mar-30 13:33 UTC. Time now 2015-Mar-30 14:18 UTC.
Position N 40°42' W 073°58'.

Length 46 m; draft 7 m.

Type: Towing. MMSI: 367360980.

Date/timePositionNaut miles runAvg speedWind from/ knotsBaromVisibWave heightAir tempDewpointWater temp
2015-Mar-30 13:33N 40°42' W 073°58'0 0.0
2015-Mar-30 12:33N 40°42' W 073°58'0 0.0
2015-Mar-30 11:33N 40°42' W 073°58'5 4.8
2015-Mar-30 10:33N 40°39' W 074°03'5 4.9
2015-Mar-30 09:32N 40°39' W 074°10'0 0.0
2015-Mar-30 08:28N 40°39' W 074°10'0 0.0
2015-Mar-30 07:33N 40°39' W 074°10'1 0.5
2015-Mar-30 06:33N 40°39' W 074°09'7 6.8
2015-Mar-30 05:32N 40°35' W 074°02'8 8.4
2015-Mar-30 04:33N 40°29' W 073°54'9 8.7
2015-Mar-30 03:33N 40°31' W 073°43'11 8.7
2015-Mar-30 02:16N 40°32' W 073°29'7 8.7
2015-Mar-30 01:30N 40°34' W 073°20'9 8.7
2015-Mar-30 00:28N 40°36' W 073°08'8 9.0
2015-Mar-29 23:33N 40°39' W 072°58'22 9.3
2015-Mar-29 21:11N 40°46' W 072°31'6 9.7
2015-Mar-29 20:33N 40°49' W 072°23'10 9.6
2015-Mar-29 19:33N 40°53' W 072°12'10 9.8
2015-Mar-29 18:33N 40°57' W 072°00'10 9.9
2015-Mar-29 17:33N 41°01' W 071°48'10 9.9
2015-Mar-29 16:33N 41°05' W 071°36'10 9.9
2015-Mar-29 15:33N 41°09' W 071°24'10 9.6
2015-Mar-29 14:33N 41°16' W 071°15'13 9.5
2015-Mar-29 13:09N 41°25' W 071°02'79 8.2
2015-Mar-29 03:33N 42°41' W 070°32'9 9.4
2015-Mar-29 02:33N 42°50' W 070°36'0 0.0
2015-Mar-27 23:33N 42°50' W 070°36'95 5.3
2015-Mar-27 05:33N 41°18' W 071°09'8 7.5
2015-Mar-27 04:31N 41°12' W 071°16'7 7.2
2015-Mar-27 03:33N 41°08' W 071°23'7 7.2
2015-Mar-27 02:33N 41°06' W 071°33'7 7.2
2015-Mar-27 01:33N 41°03' W 071°41'7 6.9
2015-Mar-27 00:33N 41°01' W 071°50'7 7.1
2015-Mar-26 23:33N 40°58' W 071°58'7 7.3
2015-Mar-26 22:33N 40°55' W 072°07'7 7.2
2015-Mar-26 21:33N 40°52' W 072°16'7 7.3
2015-Mar-26 20:33N 40°49' W 072°25'7 7.4
2015-Mar-26 19:33N 40°46' W 072°34'8 7.5
2015-Mar-26 18:32N 40°43' W 072°43'8 7.3
2015-Mar-26 17:30N 40°40' W 072°52'7 7.3
2015-Mar-26 16:30N 40°38' W 073°01'20 7.0
2015-Mar-26 13:33N 40°33' W 073°28'7 7.0
2015-Mar-26 12:33N 40°31' W 073°37'7 7.1
2015-Mar-26 11:33N 40°30' W 073°46'14 6.9
2015-Mar-26 09:28N 40°36' W 074°03'6 6.6
2015-Mar-26 08:32N 40°39' W 074°10'6 2.0
2015-Mar-26 05:27N 40°34' W 074°14'0 0.0
2015-Mar-25 22:29N 40°34' W 074°14'0 0.0
2015-Mar-25 21:30N 40°34' W 074°14'0 0.0
2015-Mar-25 20:32N 40°34' W 074°14'4 0.2
2015-Mar-25 03:23N 40°30' W 074°15'5 5.5
2015-Mar-25 02:31N 40°30' W 074°09'0 0.0
2015-Mar-24 23:26N 40°30' W 074°09'0 0.1
2015-Mar-24 21:30N 40°30' W 074°09'0 0.0
2015-Mar-24 19:11N 40°30' W 074°09'0 0.0
2015-Mar-24 18:28N 40°30' W 074°09'5 4.9
2015-Mar-24 17:30N 40°30' W 074°03'8 8.3
2015-Mar-24 16:31N 40°38' W 074°03'3 2.9
2015-Mar-24 15:33N 40°39' W 074°07'0 0.0
2015-Mar-24 14:33N 40°39' W 074°07'0 0.0
2015-Mar-24 13:33N 40°39' W 074°07'0 0.0
2015-Mar-24 12:33N 40°39' W 074°07'0 0.0
2015-Mar-24 11:33N 40°39' W 074°07'0 0.3
2015-Mar-24 10:25N 40°39' W 074°07'0 0.0
2015-Mar-24 09:33N 40°39' W 074°07'0 0.0
2015-Mar-24 08:33N 40°39' W 074°07'0 0.0
2015-Mar-24 07:33N 40°39' W 074°07'0 0.0
2015-Mar-24 06:32N 40°39' W 074°07'0 0.0
2015-Mar-24 05:25N 40°39' W 074°07'0 0.0
2015-Mar-24 04:33N 40°39' W 074°07'0 0.0
2015-Mar-24 03:32N 40°39' W 074°07'0 0.0
2015-Mar-24 02:33N 40°39' W 074°07'0 0.0
2015-Mar-24 01:13N 40°39' W 074°07'0 0.0
2015-Mar-24 00:33N 40°39' W 074°07'1 1.3
2015-Mar-23 23:32N 40°38' W 074°09'0 0.5
2015-Mar-23 22:33N 40°38' W 074°09'2 1.8
2015-Mar-23 21:33N 40°39' W 074°07'0 0.0
2015-Mar-23 20:33N 40°39' W 074°07'0 0.0
2015-Mar-23 19:33N 40°39' W 074°07'0 0.0
2015-Mar-23 18:33N 40°39' W 074°07'0 0.0
2015-Mar-23 17:33N 40°39' W 074°07'0 0.0
2015-Mar-23 16:33N 40°39' W 074°07'0 0.0
2015-Mar-23 15:33N 40°39' W 074°07'0 0.0
2015-Mar-23 14:33N 40°39' W 074°07'0 0.0
2015-Mar-23 13:33N 40°39' W 074°07'0 0.0
2015-Mar-23 12:33N 40°39' W 074°07'0 0.0
2015-Mar-23 11:33N 40°39' W 074°07'0 0.0
2015-Mar-23 10:33N 40°39' W 074°07'0 0.0
2015-Mar-23 09:33N 40°39' W 074°07'0 0.0
2015-Mar-23 08:33N 40°39' W 074°07'0 0.0
2015-Mar-23 07:33N 40°39' W 074°07'0 0.0
2015-Mar-23 06:33N 40°39' W 074°07'0 0.0
2015-Mar-23 05:33N 40°39' W 074°07'0 0.0
2015-Mar-23 04:33N 40°39' W 074°07'0 0.0
2015-Mar-23 03:33N 40°39' W 074°07'0 0.0
2015-Mar-23 02:33N 40°39' W 074°07'0 0.0
2015-Mar-23 01:33N 40°39' W 074°07'0 0.0
2015-Mar-23 00:33N 40°39' W 074°07'0 0.0
2015-Mar-22 23:33N 40°39' W 074°07'0 0.0
2015-Mar-22 22:33N 40°39' W 074°07'0 0.0
2015-Mar-22 21:33N 40°39' W 074°07'0 0.0
2015-Mar-22 20:33N 40°39' W 074°07'0 0.0
2015-Mar-22 19:33N 40°39' W 074°07'0 0.0
2015-Mar-22 18:33N 40°39' W 074°07'0 0.0
2015-Mar-22 17:33N 40°39' W 074°07'0 0.0
2015-Mar-22 16:33N 40°39' W 074°07'0 0.0
2015-Mar-22 15:33N 40°39' W 074°07'0 0.0
2015-Mar-22 14:33N 40°39' W 074°07'0 0.0
2015-Mar-22 13:33N 40°39' W 074°07'0 0.0
2015-Mar-22 12:33N 40°39' W 074°07'0 0.0
2015-Mar-22 11:33N 40°39' W 074°07'0 0.0
2015-Mar-22 10:33N 40°39' W 074°07'0 0.0
2015-Mar-22 09:32N 40°39' W 074°07'0 0.0
2015-Mar-22 08:33N 40°39' W 074°07'0 0.0
2015-Mar-22 07:33N 40°39' W 074°07'0 0.0
2015-Mar-22 06:33N 40°39' W 074°07'0 0.0
2015-Mar-22 05:33N 40°39' W 074°07'0 0.0
2015-Mar-22 04:33N 40°39' W 074°07'0 0.0
2015-Mar-22 03:33N 40°39' W 074°07'0 0.0
2015-Mar-22 02:33N 40°39' W 074°07'0 0.0
2015-Mar-22 01:33N 40°39' W 074°07'0 0.0
2015-Mar-22 00:33N 40°39' W 074°07'0 0.0
2015-Mar-21 23:33N 40°39' W 074°07'0 0.0
2015-Mar-21 22:33N 40°39' W 074°07'0 0.0
2015-Mar-21 21:33N 40°39' W 074°07'0 0.0
2015-Mar-21 20:33N 40°39' W 074°07'0 0.0
2015-Mar-21 19:33N 40°39' W 074°07'0 0.0
2015-Mar-21 18:33N 40°39' W 074°07'0 0.0
2015-Mar-21 17:33N 40°39' W 074°07'0 0.0
2015-Mar-21 16:33N 40°39' W 074°07'0 0.0
2015-Mar-21 15:33N 40°39' W 074°07'0 0.0
2015-Mar-21 14:33N 40°39' W 074°07'0 0.0
2015-Mar-21 13:33N 40°39' W 074°07'0 0.0
2015-Mar-21 12:33N 40°39' W 074°07'0 0.0
2015-Mar-21 11:33N 40°39' W 074°07'0 0.0
2015-Mar-21 10:33N 40°39' W 074°07'0 0.0
2015-Mar-21 09:33N 40°39' W 074°07'0 0.0
2015-Mar-21 08:33N 40°39' W 074°07'0 0.0
2015-Mar-21 07:33N 40°39' W 074°07'0 0.0
2015-Mar-21 06:33N 40°39' W 074°07'0 0.0
2015-Mar-21 05:33N 40°39' W 074°07'0 0.0
2015-Mar-21 04:33N 40°39' W 074°07'0 0.0
2015-Mar-21 03:33N 40°39' W 074°07'0 0.0
2015-Mar-21 02:33N 40°39' W 074°07'0 0.0
2015-Mar-21 01:33N 40°39' W 074°07'0 0.0
2015-Mar-21 00:33N 40°39' W 074°07'0 0.0
2015-Mar-20 23:33N 40°39' W 074°07'0 0.0
2015-Mar-20 22:33N 40°39' W 074°07'0 0.0
2015-Mar-20 21:33N 40°39' W 074°07'0 0.0
2015-Mar-20 20:33N 40°39' W 074°07'0 0.0
2015-Mar-20 19:33N 40°39' W 074°07'2 2.2
2015-Mar-20 18:32N 40°39' W 074°10'1 0.6
2015-Mar-20 17:33N 40°38' W 074°09'2 1.5
2015-Mar-20 16:20N 40°39' W 074°07'0 0.4
2015-Mar-20 15:33N 40°39' W 074°07'0 0.0
2015-Mar-20 14:33N 40°39' W 074°07'  

Dump ship's entire track history